Marine Rescue Pd20 — PD20 — position and weather

sailwx.info

Track history (hours):
 
Tides and Currents Weather Stations Pressure Air Temp Water Temp Dewpoint Dewpoint Depression Visibility Wind Speed Wind Dir Waves Ship Positions

Marine Rescue Pd20

Last reported at 2018-Feb-19 06:19 UTC. Time now 2018-Feb-22 15:14 UTC.
Position S 28°11' E 153°33'.

Length 7 m.

Type: SAR. MMSI: 503031650.

Date/timePositionNaut miles runAvg speedWind from/ knotsBaromVisibWave heightAir tempDewpointWater temp
2018-Feb-19 06:19S 28°11' E 153°33'0 0.4
2018-Feb-19 06:00S 28°11' E 153°32'4 7.0
2018-Feb-19 05:30S 28°14' E 153°33'2 3.5
2018-Feb-19 04:59S 28°15' E 153°31'3 5.7
2018-Feb-19 04:30S 28°13' E 153°34'2 0.6
2018-Feb-19 00:26S 28°11' E 153°33'0 0.0
2018-Feb-17 20:13S 28°11' E 153°33'0 0.0
2018-Feb-17 00:13S 28°11' E 153°33'0 0.0
2018-Feb-17 00:01S 28°11' E 153°33'0 0.0
2018-Feb-16 23:31S 28°11' E 153°33'0 0.0
2018-Feb-16 23:00S 28°11' E 153°33'0 0.3
2018-Feb-16 22:31S 28°11' E 153°32'5 9.0
2018-Feb-16 22:00S 28°15' E 153°31'1 1.7
2018-Feb-16 21:31S 28°16' E 153°31'611.7
2018-Feb-16 21:00S 28°10' E 153°33'0 1.0
2018-Feb-16 20:30S 28°11' E 153°33'0 0.0
2018-Feb-16 20:00S 28°11' E 153°33'  
2018-Feb-12 00:47S 28°11' E 153°33'0 0.0
2018-Feb-12 00:31S 28°11' E 153°33'1 2.8
2018-Feb-12 00:00S 28°12' E 153°34'1 2.8
2018-Feb-11 23:30S 28°11' E 153°33'0 0.0
2018-Feb-11 22:59S 28°11' E 153°33'0 0.0
2018-Feb-11 05:14S 28°11' E 153°33'0 0.0
2018-Feb-11 05:00S 28°11' E 153°33'1 2.5
2018-Feb-11 04:30S 28°12' E 153°31'1 2.5
2018-Feb-11 04:00S 28°11' E 153°33'  
Track history (hours):
 
Tides and Currents Weather Stations Pressure Air Temp Water Temp Dewpoint Dewpoint Depression Visibility Wind Speed Wind Dir Waves Ship Positions

Marine Rescue Pd20

Last reported at 2018-Feb-19 06:19 UTC. Time now 2018-Feb-22 15:14 UTC.
Position S 28°11' E 153°33'.

Length 7 m.

Type: SAR. MMSI: 503031650.

Date/timePositionNaut miles runAvg speedWind from/ knotsBaromVisibWave heightAir tempDewpointWater temp
2018-Feb-19 06:19S 28°11' E 153°33'0 0.4
2018-Feb-19 06:00S 28°11' E 153°32'4 7.0
2018-Feb-19 05:30S 28°14' E 153°33'2 3.5
2018-Feb-19 04:59S 28°15' E 153°31'3 5.7
2018-Feb-19 04:30S 28°13' E 153°34'2 0.6
2018-Feb-19 00:26S 28°11' E 153°33'0 0.0
2018-Feb-17 20:13S 28°11' E 153°33'0 0.0
2018-Feb-17 00:13S 28°11' E 153°33'0 0.0
2018-Feb-17 00:01S 28°11' E 153°33'0 0.0
2018-Feb-16 23:31S 28°11' E 153°33'0 0.0
2018-Feb-16 23:00S 28°11' E 153°33'0 0.3
2018-Feb-16 22:31S 28°11' E 153°32'5 9.0
2018-Feb-16 22:00S 28°15' E 153°31'1 1.7
2018-Feb-16 21:31S 28°16' E 153°31'611.7
2018-Feb-16 21:00S 28°10' E 153°33'0 1.0
2018-Feb-16 20:30S 28°11' E 153°33'0 0.0
2018-Feb-16 20:00S 28°11' E 153°33'  
2018-Feb-12 00:47S 28°11' E 153°33'0 0.0
2018-Feb-12 00:31S 28°11' E 153°33'1 2.8
2018-Feb-12 00:00S 28°12' E 153°34'1 2.8
2018-Feb-11 23:30S 28°11' E 153°33'0 0.0
2018-Feb-11 22:59S 28°11' E 153°33'0 0.0
2018-Feb-11 05:14S 28°11' E 153°33'0 0.0
2018-Feb-11 05:00S 28°11' E 153°33'1 2.5
2018-Feb-11 04:30S 28°12' E 153°31'1 2.5
2018-Feb-11 04:00S 28°11' E 153°33'  

Dump ship's entire track history